sensor_id;sensor_type;location;lat;lon;timestamp;pressure;altitude;pressure_sealevel;temperature;humidity
24013;BME280;12220;50.194;18.948;2023-08-06T00:01:01;100576.38;;;20.44;89.00
24013;BME280;12220;50.194;18.948;2023-08-06T00:03:12;100572.75;;;20.43;89.19
24013;BME280;12220;50.194;18.948;2023-08-06T00:05:14;100578.30;;;20.43;89.17
24013;BME280;12220;50.194;18.948;2023-08-06T00:07:19;100570.64;;;20.45;89.21
24013;BME280;12220;50.194;18.948;2023-08-06T00:09:20;100566.47;;;20.49;89.26
24013;BME280;12220;50.194;18.948;2023-08-06T00:11:26;100543.01;;;20.52;89.27
24013;BME280;12220;50.194;18.948;2023-08-06T00:13:31;100535.16;;;20.55;89.23
24013;BME280;12220;50.194;18.948;2023-08-06T00:15:35;100330.93;;;19.46;89.01
24013;BME280;12220;50.194;18.948;2023-08-06T00:17:36;100508.72;;;20.60;88.99
24013;BME280;12220;50.194;18.948;2023-08-06T00:19:41;100488.40;;;20.59;88.94
24013;BME280;12220;50.194;18.948;2023-08-06T00:21:43;100473.59;;;20.59;88.94
24013;BME280;12220;50.194;18.948;2023-08-06T00:23:47;100455.20;;;20.58;88.86
24013;BME280;12220;50.194;18.948;2023-08-06T00:25:48;100449.63;;;20.58;88.89
24013;BME280;12220;50.194;18.948;2023-08-06T00:27:57;100437.44;;;20.59;88.97
24013;BME280;12220;50.194;18.948;2023-08-06T00:29:59;100436.59;;;20.58;89.03
24013;BME280;12220;50.194;18.948;2023-08-06T00:32:03;100417.96;;;20.59;88.98
24013;BME280;12220;50.194;18.948;2023-08-06T00:34:07;100378.36;;;20.57;89.01
24013;BME280;12220;50.194;18.948;2023-08-06T00:36:11;100358.88;;;20.57;89.00
24013;BME280;12220;50.194;18.948;2023-08-06T00:38:16;100344.27;;;20.54;89.02
24013;BME280;12220;50.194;18.948;2023-08-06T00:40:21;100336.29;;;20.51;89.12
24013;BME280;12220;50.194;18.948;2023-08-06T00:42:23;100345.71;;;20.50;89.24
24013;BME280;12220;50.194;18.948;2023-08-06T00:44:26;100389.15;;;20.51;89.38
24013;BME280;12220;50.194;18.948;2023-08-06T00:46:27;100425.30;;;20.51;89.42
24013;BME280;12220;50.194;18.948;2023-08-06T00:48:29;100446.51;;;20.52;89.51
24013;BME280;12220;50.194;18.948;2023-08-06T00:50:30;100420.26;;;20.55;89.55
24013;BME280;12220;50.194;18.948;2023-08-06T00:52:41;100383.91;;;20.57;89.38
24013;BME280;12220;50.194;18.948;2023-08-06T00:54:42;100393.13;;;20.57;89.28
24013;BME280;12220;50.194;18.948;2023-08-06T00:56:45;100390.52;;;20.55;89.23
24013;BME280;12220;50.194;18.948;2023-08-06T00:58:47;100373.84;;;20.55;89.22
24013;BME280;12220;50.194;18.948;2023-08-06T01:00:56;100347.94;;;20.55;89.27
24013;BME280;12220;50.194;18.948;2023-08-06T01:02:57;100325.69;;;20.55;89.42
24013;BME280;12220;50.194;18.948;2023-08-06T01:04:58;100329.51;;;20.54;89.50
24013;BME280;12220;50.194;18.948;2023-08-06T01:11:40;100348.42;;;20.59;89.55
24013;BME280;12220;50.194;18.948;2023-08-06T01:14:01;100365.11;;;20.59;89.58
24013;BME280;12220;50.194;18.948;2023-08-06T01:16:03;100383.55;;;20.60;89.59
24013;BME280;12220;50.194;18.948;2023-08-06T01:18:06;100369.46;;;20.61;89.54
24013;BME280;12220;50.194;18.948;2023-08-06T01:20:09;100363.04;;;20.61;89.36
24013;BME280;12220;50.194;18.948;2023-08-06T01:22:11;100359.55;;;20.59;89.26
24013;BME280;12220;50.194;18.948;2023-08-06T01:24:12;100370.00;;;20.57;89.37
24013;BME280;12220;50.194;18.948;2023-08-06T01:28:33;100353.13;;;20.58;89.57
24013;BME280;12220;50.194;18.948;2023-08-06T01:30:41;100322.54;;;20.58;89.58
24013;BME280;12220;50.194;18.948;2023-08-06T01:32:50;100312.45;;;20.57;89.54
24013;BME280;12220;50.194;18.948;2023-08-06T01:34:55;100305.15;;;20.56;89.70
24013;BME280;12220;50.194;18.948;2023-08-06T01:36:57;100302.21;;;20.58;89.79
24013;BME280;12220;50.194;18.948;2023-08-06T01:39:00;100292.80;;;20.59;89.73
24013;BME280;12220;50.194;18.948;2023-08-06T01:41:02;100284.27;;;20.60;89.87
24013;BME280;12220;50.194;18.948;2023-08-06T01:43:03;100278.89;;;20.59;89.56
24013;BME280;12220;50.194;18.948;2023-08-06T01:45:06;100281.66;;;20.59;89.67
24013;BME280;12220;50.194;18.948;2023-08-06T01:47:08;100283.59;;;20.58;89.69
24013;BME280;12220;50.194;18.948;2023-08-06T01:49:17;100277.86;;;20.60;89.76
24013;BME280;12220;50.194;18.948;2023-08-06T01:51:18;100281.48;;;20.60;89.85
24013;BME280;12220;50.194;18.948;2023-08-06T01:53:20;100287.75;;;20.62;89.91
24013;BME280;12220;50.194;18.948;2023-08-06T01:55:21;100291.92;;;20.66;89.89
24013;BME280;12220;50.194;18.948;2023-08-06T01:57:32;100299.91;;;20.69;89.91
24013;BME280;12220;50.194;18.948;2023-08-06T01:59:33;100303.35;;;20.71;89.85
24013;BME280;12220;50.194;18.948;2023-08-06T02:01:34;100313.92;;;20.76;89.79
24013;BME280;12220;50.194;18.948;2023-08-06T02:03:36;100320.19;;;20.78;89.70
24013;BME280;12220;50.194;18.948;2023-08-06T02:05:46;100313.35;;;20.81;89.65
24013;BME280;12220;50.194;18.948;2023-08-06T02:07:48;100308.30;;;20.84;89.59
24013;BME280;12220;50.194;18.948;2023-08-06T02:09:49;100308.97;;;20.86;89.52
24013;BME280;12220;50.194;18.948;2023-08-06T02:11:51;100303.03;;;20.89;89.44
24013;BME280;12220;50.194;18.948;2023-08-06T02:14:01;100307.37;;;20.92;89.28
24013;BME280;12220;50.194;18.948;2023-08-06T02:16:03;100305.28;;;20.94;89.24
24013;BME280;12220;50.194;18.948;2023-08-06T02:18:04;100297.78;;;20.95;89.15
24013;BME280;12220;50.194;18.948;2023-08-06T02:20:06;100281.09;;;20.95;89.00
24013;BME280;12220;50.194;18.948;2023-08-06T02:22:16;100292.21;;;20.95;88.99
24013;BME280;12220;50.194;18.948;2023-08-06T02:24:17;100293.07;;;20.95;88.92
24013;BME280;12220;50.194;18.948;2023-08-06T02:26:19;100295.01;;;20.95;88.92
24013;BME280;12220;50.194;18.948;2023-08-06T02:28:20;100296.75;;;20.96;88.92
24013;BME280;12220;50.194;18.948;2023-08-06T02:30:31;100291.84;;;20.98;88.88
24013;BME280;12220;50.194;18.948;2023-08-06T02:32:32;100295.67;;;20.97;88.87
24013;BME280;12220;50.194;18.948;2023-08-06T02:34:36;100285.23;;;20.99;88.86
24013;BME280;12220;50.194;18.948;2023-08-06T02:36:38;100270.24;;;21.00;88.84
24013;BME280;12220;50.194;18.948;2023-08-06T02:38:46;100263.63;;;21.01;88.79
24013;BME280;12220;50.194;18.948;2023-08-06T02:40:48;100252.13;;;21.04;88.71
24013;BME280;12220;50.194;18.948;2023-08-06T02:42:49;100253.85;;;21.05;88.53
24013;BME280;12220;50.194;18.948;2023-08-06T02:44:50;100264.14;;;21.04;88.44
24013;BME280;12220;50.194;18.948;2023-08-06T02:47:01;100257.88;;;21.02;88.33
24013;BME280;12220;50.194;18.948;2023-08-06T02:49:03;100250.60;;;21.01;88.37
24013;BME280;12220;50.194;18.948;2023-08-06T02:51:04;100254.42;;;21.00;88.41
24013;BME280;12220;50.194;18.948;2023-08-06T02:53:08;100247.82;;;21.01;88.44
24013;BME280;12220;50.194;18.948;2023-08-06T02:55:15;100246.94;;;21.01;88.47
24013;BME280;12220;50.194;18.948;2023-08-06T02:57:17;100252.30;;;21.02;88.45
24013;BME280;12220;50.194;18.948;2023-08-06T02:59:18;100254.23;;;21.02;88.39
24013;BME280;12220;50.194;18.948;2023-08-06T03:01:19;100096.06;;;20.14;88.26
24013;BME280;12220;50.194;18.948;2023-08-06T03:03:33;100234.56;;;21.03;88.37
24013;BME280;12220;50.194;18.948;2023-08-06T03:05:35;100241.87;;;21.04;88.36
24013;BME280;12220;50.194;18.948;2023-08-06T03:07:36;100236.96;;;21.06;88.32
24013;BME280;12220;50.194;18.948;2023-08-06T03:09:38;100237.82;;;21.07;88.24
24013;BME280;12220;50.194;18.948;2023-08-06T03:11:45;100248.80;;;21.09;88.18
24013;BME280;12220;50.194;18.948;2023-08-06T03:13:47;100249.65;;;21.09;88.05
24013;BME280;12220;50.194;18.948;2023-08-06T03:15:58;100239.75;;;21.06;87.96
24013;BME280;12220;50.194;18.948;2023-08-06T03:18:00;100234.19;;;21.06;88.01
24013;BME280;12220;50.194;18.948;2023-08-06T03:20:05;100239.75;;;21.06;88.06
24013;BME280;12220;50.194;18.948;2023-08-06T03:22:06;100226.02;;;21.05;88.11
24013;BME280;12220;50.194;18.948;2023-08-06T03:24:08;100226.02;;;21.05;88.15
24013;BME280;12220;50.194;18.948;2023-08-06T03:26:09;100228.81;;;21.05;88.16
24013;BME280;12220;50.194;18.948;2023-08-06T03:28:15;100237.15;;;21.05;88.18
24013;BME280;12220;50.194;18.948;2023-08-06T03:30:17;100228.14;;;21.03;88.23
24013;BME280;12220;50.194;18.948;2023-08-06T03:32:18;100238.20;;;21.04;88.18
24013;BME280;12220;50.194;18.948;2023-08-06T03:34:20;100245.88;;;21.02;88.13
24013;BME280;12220;50.194;18.948;2023-08-06T03:36:29;100227.64;;;20.99;88.21
24013;BME280;12220;50.194;18.948;2023-08-06T03:38:31;100224.00;;;20.99;88.30
24013;BME280;12220;50.194;18.948;2023-08-06T03:40:35;100219.48;;;20.98;88.33
24013;BME280;12220;50.194;18.948;2023-08-06T03:42:37;100219.48;;;20.98;88.44
24013;BME280;12220;50.194;18.948;2023-08-06T03:44:44;100217.73;;;20.97;88.57
24013;BME280;12220;50.194;18.948;2023-08-06T03:46:46;100208.53;;;20.96;88.64
24013;BME280;12220;50.194;18.948;2023-08-06T03:48:47;100204.90;;;20.96;88.49
24013;BME280;12220;50.194;18.948;2023-08-06T03:50:48;100205.95;;;20.95;88.43
24013;BME280;12220;50.194;18.948;2023-08-06T03:52:59;100203.55;;;20.92;88.57
24013;BME280;12220;50.194;18.948;2023-08-06T03:55:00;100206.33;;;20.92;88.67
24013;BME280;12220;50.194;18.948;2023-08-06T03:57:02;100199.02;;;20.90;88.81
24013;BME280;12220;50.194;18.948;2023-08-06T03:59:04;100219.55;;;20.89;88.91
24013;BME280;12220;50.194;18.948;2023-08-06T04:01:14;100204.12;;;20.87;89.00
24013;BME280;12220;50.194;18.948;2023-08-06T04:03:15;100207.09;;;20.85;89.11
24013;BME280;12220;50.194;18.948;2023-08-06T04:05:20;100207.09;;;20.85;89.21
24013;BME280;12220;50.194;18.948;2023-08-06T04:07:21;100202.18;;;20.87;89.30
24013;BME280;12220;50.194;18.948;2023-08-06T04:09:29;100201.99;;;20.89;89.31
24013;BME280;12220;50.194;18.948;2023-08-06T04:11:30;100205.63;;;20.89;89.31
24013;BME280;12220;50.194;18.948;2023-08-06T04:13:32;100206.33;;;20.92;89.32
24013;BME280;12220;50.194;18.948;2023-08-06T04:15:36;100205.28;;;20.93;89.31
24013;BME280;12220;50.194;18.948;2023-08-06T04:17:44;100205.28;;;20.93;89.35
24013;BME280;12220;50.194;18.948;2023-08-06T04:19:45;100198.83;;;20.92;89.29
24013;BME280;12220;50.194;18.948;2023-08-06T04:21:47;100197.98;;;20.92;89.16
24013;BME280;12220;50.194;18.948;2023-08-06T04:23:48;100190.68;;;20.90;89.20
24013;BME280;12220;50.194;18.948;2023-08-06T04:25:58;100196.43;;;20.89;89.27
24013;BME280;12220;50.194;18.948;2023-08-06T04:28:00;100192.79;;;20.88;89.38
24013;BME280;12220;50.194;18.948;2023-08-06T04:30:01;100190.20;;;20.87;89.47
24013;BME280;12220;50.194;18.948;2023-08-06T04:32:08;100179.06;;;20.87;89.54
24013;BME280;12220;50.194;18.948;2023-08-06T04:34:13;100181.16;;;20.85;89.60
24013;BME280;12220;50.194;18.948;2023-08-06T04:36:18;100177.71;;;20.83;89.67
24013;BME280;12220;50.194;18.948;2023-08-06T04:38:19;100161.88;;;20.83;89.79
24013;BME280;12220;50.194;18.948;2023-08-06T04:40:21;100154.57;;;20.82;89.60
24013;BME280;12220;50.194;18.948;2023-08-06T04:42:28;100151.98;;;20.81;89.48
24013;BME280;12220;50.194;18.948;2023-08-06T04:44:29;100156.03;;;20.78;89.53
24013;BME280;12220;50.194;18.948;2023-08-06T04:46:31;100154.28;;;20.77;89.72
24013;BME280;12220;50.194;18.948;2023-08-06T04:48:32;100161.78;;;20.77;89.85
24013;BME280;12220;50.194;18.948;2023-08-06T04:50:47;100160.03;;;20.76;89.99
24013;BME280;12220;50.194;18.948;2023-08-06T04:52:48;100179.71;;;20.74;90.04
24013;BME280;12220;50.194;18.948;2023-08-06T04:54:50;100162.13;;;20.73;90.16
24013;BME280;12220;50.194;18.948;2023-08-06T04:56:51;100159.20;;;20.75;90.24
24013;BME280;12220;50.194;18.948;2023-08-06T04:58:59;100152.55;;;20.76;90.25
24013;BME280;12220;50.194;18.948;2023-08-06T05:01:00;100158.80;;;20.78;90.26
24013;BME280;12220;50.194;18.948;2023-08-06T05:03:01;100158.80;;;20.78;90.09
24013;BME280;12220;50.194;18.948;2023-08-06T05:05:03;100157.07;;;20.77;89.96
24013;BME280;12220;50.194;18.948;2023-08-06T05:07:13;100161.09;;;20.75;89.81
24013;BME280;12220;50.194;18.948;2023-08-06T05:09:14;100159.07;;;20.68;89.70
24013;BME280;12220;50.194;18.948;2023-08-06T05:11:15;100149.13;;;20.66;89.62
24013;BME280;12220;50.194;18.948;2023-08-06T05:13:17;100143.77;;;20.64;89.52
24013;BME280;12220;50.194;18.948;2023-08-06T05:15:27;100148.66;;;20.62;89.42
24013;BME280;12220;50.194;18.948;2023-08-06T05:17:29;100005.90;;;19.71;89.11
24013;BME280;12220;50.194;18.948;2023-08-06T05:19:30;100137.98;;;20.51;89.09
24013;BME280;12220;50.194;18.948;2023-08-06T05:21:31;100126.73;;;20.44;88.84
24013;BME280;12220;50.194;18.948;2023-08-06T05:23:42;100132.38;;;20.36;88.67
24013;BME280;12220;50.194;18.948;2023-08-06T05:25:44;100149.98;;;20.28;88.40
24013;BME280;12220;50.194;18.948;2023-08-06T05:27:48;100140.64;;;20.21;88.31
24013;BME280;12220;50.194;18.948;2023-08-06T05:29:50;100127.49;;;20.15;88.21
24013;BME280;12220;50.194;18.948;2023-08-06T05:31:57;100124.80;;;20.07;88.05
24013;BME280;12220;50.194;18.948;2023-08-06T05:33:58;100141.14;;;20.01;87.98
24013;BME280;12220;50.194;18.948;2023-08-06T05:36:00;100139.96;;;19.96;87.86
24013;BME280;12220;50.194;18.948;2023-08-06T05:38:01;100149.04;;;19.90;87.50
24013;BME280;12220;50.194;18.948;2023-08-06T05:40:12;100141.63;;;19.82;87.35
24013;BME280;12220;50.194;18.948;2023-08-06T05:42:13;100144.41;;;19.74;87.46
24013;BME280;12220;50.194;18.948;2023-08-06T05:44:15;99974.43;;;18.53;87.43
24013;BME280;12220;50.194;18.948;2023-08-06T05:46:16;100131.11;;;19.61;87.54
24013;BME280;12220;50.194;18.948;2023-08-06T05:48:27;100117.96;;;19.55;87.63
24013;BME280;12220;50.194;18.948;2023-08-06T05:50:28;100115.92;;;19.48;87.56
24013;BME280;12220;50.194;18.948;2023-08-06T05:52:30;100112.98;;;19.42;87.63
24013;BME280;12220;50.194;18.948;2023-08-06T05:54:31;100109.01;;;19.36;87.52
24013;BME280;12220;50.194;18.948;2023-08-06T05:56:41;99949.91;;;18.17;87.29
24013;BME280;12220;50.194;18.948;2023-08-06T05:58:43;100109.95;;;19.20;86.93
24013;BME280;12220;50.194;18.948;2023-08-06T06:00:44;100109.82;;;19.13;87.08
24013;BME280;12220;50.194;18.948;2023-08-06T06:02:46;100102.20;;;19.07;87.39
24013;BME280;12220;50.194;18.948;2023-08-06T06:04:56;100096.51;;;19.01;87.56
24013;BME280;12220;50.194;18.948;2023-08-06T06:06:58;100099.96;;;18.94;87.80
24013;BME280;12220;50.194;18.948;2023-08-06T06:08:59;100099.48;;;18.91;87.78
24013;BME280;12220;50.194;18.948;2023-08-06T06:11:00;100102.25;;;18.91;87.88
24013;BME280;12220;50.194;18.948;2023-08-06T06:13:11;100089.77;;;18.87;87.80
24013;BME280;12220;50.194;18.948;2023-08-06T06:15:13;100082.81;;;18.82;87.71
24013;BME280;12220;50.194;18.948;2023-08-06T06:17:14;100092.20;;;18.81;87.72
24013;BME280;12220;50.194;18.948;2023-08-06T06:19:15;100088.91;;;18.78;87.63
24013;BME280;12220;50.194;18.948;2023-08-06T06:21:26;100077.66;;;18.71;87.70
24013;BME280;12220;50.194;18.948;2023-08-06T06:23:27;100077.32;;;18.66;87.45
24013;BME280;12220;50.194;18.948;2023-08-06T06:25:28;100068.65;;;18.61;87.48
24013;BME280;12220;50.194;18.948;2023-08-06T06:27:30;100076.64;;;18.56;87.57
24013;BME280;12220;50.194;18.948;2023-08-06T06:29:41;100083.76;;;18.50;87.73
24013;BME280;12220;50.194;18.948;2023-08-06T06:31:42;100097.13;;;18.46;87.92
24013;BME280;12220;50.194;18.948;2023-08-06T06:35:27;100110.62;;;18.41;87.76
24013;BME280;12220;50.194;18.948;2023-08-06T06:37:29;100099.88;;;18.38;87.74
24013;BME280;12220;50.194;18.948;2023-08-06T06:39:30;100092.95;;;18.34;87.78
24013;BME280;12220;50.194;18.948;2023-08-06T06:41:31;100081.19;;;18.32;87.87
24013;BME280;12220;50.194;18.948;2023-08-06T06:43:36;100057.63;;;18.28;87.94
24013;BME280;12220;50.194;18.948;2023-08-06T06:45:40;100053.13;;;18.27;88.08
24013;BME280;12220;50.194;18.948;2023-08-06T06:47:41;100056.24;;;18.24;88.20
24013;BME280;12220;50.194;18.948;2023-08-06T06:49:43;100067.50;;;18.22;88.33
24013;BME280;12220;50.194;18.948;2023-08-06T06:51:44;99898.05;;;17.20;88.10
24013;BME280;12220;50.194;18.948;2023-08-06T06:53:45;100068.71;;;18.20;88.23
24013;BME280;12220;50.194;18.948;2023-08-06T06:55:56;100069.41;;;18.14;88.12
24013;BME280;12220;50.194;18.948;2023-08-06T06:57:57;100050.38;;;18.10;88.15
24013;BME280;12220;50.194;18.948;2023-08-06T06:59:59;100031.32;;;18.07;88.17
24013;BME280;12220;50.194;18.948;2023-08-06T07:02:00;100039.63;;;17.99;88.11
24013;BME280;12220;50.194;18.948;2023-08-06T07:04:10;100032.87;;;17.93;88.54
24013;BME280;12220;50.194;18.948;2023-08-06T07:06:11;100036.13;;;17.89;88.68
24013;BME280;12220;50.194;18.948;2023-08-06T07:08:13;100034.56;;;17.86;88.53
24013;BME280;12220;50.194;18.948;2023-08-06T07:10:15;100042.03;;;17.86;88.76
24013;BME280;12220;50.194;18.948;2023-08-06T07:12:25;100038.71;;;17.82;88.83
24013;BME280;12220;50.194;18.948;2023-08-06T07:14:26;100038.91;;;17.72;88.94
24013;BME280;12220;50.194;18.948;2023-08-06T07:16:28;99852.98;;;16.60;88.66
24013;BME280;12220;50.194;18.948;2023-08-06T07:18:34;100051.35;;;17.68;88.90
24013;BME280;12220;50.194;18.948;2023-08-06T07:20:40;100060.00;;;17.65;88.98
24013;BME280;12220;50.194;18.948;2023-08-06T07:22:41;100068.97;;;17.59;89.29
24013;BME280;12220;50.194;18.948;2023-08-06T07:24:42;100081.09;;;17.58;89.25
24013;BME280;12220;50.194;18.948;2023-08-06T07:26:44;100090.43;;;17.57;89.24
24013;BME280;12220;50.194;18.948;2023-08-06T07:28:55;100108.95;;;17.56;89.24
24013;BME280;12220;50.194;18.948;2023-08-06T07:30:56;100115.68;;;17.54;89.12
24013;BME280;12220;50.194;18.948;2023-08-06T07:32:57;100113.59;;;17.48;88.97
24013;BME280;12220;50.194;18.948;2023-08-06T07:34:59;100094.21;;;17.48;88.77
24013;BME280;12220;50.194;18.948;2023-08-06T07:37:09;100043.68;;;17.46;88.88
24013;BME280;12220;50.194;18.948;2023-08-06T07:39:11;100031.07;;;17.43;88.90
24013;BME280;12220;50.194;18.948;2023-08-06T07:41:12;100036.92;;;17.40;88.86
24013;BME280;12220;50.194;18.948;2023-08-06T07:43:13;100058.38;;;17.38;88.75
24013;BME280;12220;50.194;18.948;2023-08-06T07:45:24;100067.20;;;17.33;88.80
24013;BME280;12220;50.194;18.948;2023-08-06T07:47:29;100072.89;;;17.32;88.94
24013;BME280;12220;50.194;18.948;2023-08-06T07:49:30;100071.15;;;17.31;89.06
24013;BME280;12220;50.194;18.948;2023-08-06T07:51:31;100088.09;;;17.28;89.15
24013;BME280;12220;50.194;18.948;2023-08-06T07:53:39;100089.12;;;17.27;88.96
24013;BME280;12220;50.194;18.948;2023-08-06T07:55:41;100088.60;;;17.23;89.09
24013;BME280;12220;50.194;18.948;2023-08-06T07:57:42;100095.33;;;17.20;89.09
24013;BME280;12220;50.194;18.948;2023-08-06T07:59:43;100098.09;;;17.20;89.03
24013;BME280;12220;50.194;18.948;2023-08-06T08:01:54;100070.60;;;17.19;89.03
24013;BME280;12220;50.194;18.948;2023-08-06T08:03:55;100081.66;;;17.19;89.00
24013;BME280;12220;50.194;18.948;2023-08-06T08:05:57;100057.10;;;17.16;89.15
24013;BME280;12220;50.194;18.948;2023-08-06T08:08:01;100043.10;;;17.17;89.00
24013;BME280;12220;50.194;18.948;2023-08-06T08:10:09;100041.87;;;17.12;89.14
24013;BME280;12220;50.194;18.948;2023-08-06T08:12:12;100058.63;;;17.10;89.03
24013;BME280;12220;50.194;18.948;2023-08-06T08:14:13;100084.04;;;17.05;89.03
24013;BME280;12220;50.194;18.948;2023-08-06T08:16:14;100094.04;;;17.06;89.14
24013;BME280;12220;50.194;18.948;2023-08-06T08:18:23;100097.53;;;17.08;89.13
24013;BME280;12220;50.194;18.948;2023-08-06T08:20:26;100099.27;;;17.10;89.09
24013;BME280;12220;50.194;18.948;2023-08-06T08:22:33;100086.98;;;17.12;89.24
24013;BME280;12220;50.194;18.948;2023-08-06T08:24:34;100081.27;;;17.14;89.27
24013;BME280;12220;50.194;18.948;2023-08-06T08:26:38;100088.22;;;17.18;89.16
24013;BME280;12220;50.194;18.948;2023-08-06T08:28:42;100077.32;;;17.16;88.98
24013;BME280;12220;50.194;18.948;2023-08-06T08:30:44;100075.27;;;17.18;88.97
24013;BME280;12220;50.194;18.948;2023-08-06T08:32:45;100059.36;;;17.20;88.97
24013;BME280;12220;50.194;18.948;2023-08-06T08:34:53;100049.32;;;17.19;89.22
24013;BME280;12220;50.194;18.948;2023-08-06T08:36:55;100054.85;;;17.19;89.19
24013;BME280;12220;50.194;18.948;2023-08-06T08:38:56;100059.53;;;17.19;89.10
24013;BME280;12220;50.194;18.948;2023-08-06T08:40:58;100068.85;;;17.18;88.99
24013;BME280;12220;50.194;18.948;2023-08-06T08:43:08;100070.77;;;17.17;89.06
24013;BME280;12220;50.194;18.948;2023-08-06T08:45:14;100084.43;;;17.19;89.08
24013;BME280;12220;50.194;18.948;2023-08-06T08:47:16;100070.60;;;17.19;89.10
24013;BME280;12220;50.194;18.948;2023-08-06T08:49:18;100072.17;;;17.21;89.05
24013;BME280;12220;50.194;18.948;2023-08-06T08:51:23;100081.32;;;17.22;89.04
24013;BME280;12220;50.194;18.948;2023-08-06T08:53:25;100084.95;;;17.22;89.06
24013;BME280;12220;50.194;18.948;2023-08-06T08:55:28;100084.09;;;17.22;88.63
24013;BME280;12220;50.194;18.948;2023-08-06T08:57:30;100089.79;;;17.20;88.77
24013;BME280;12220;50.194;18.948;2023-08-06T08:59:38;100088.94;;;17.20;88.89
24013;BME280;12220;50.194;18.948;2023-08-06T09:01:42;100084.95;;;17.22;88.92
24013;BME280;12220;50.194;18.948;2023-08-06T09:03:44;100077.37;;;17.24;88.85
24013;BME280;12220;50.194;18.948;2023-08-06T09:05:49;100060.77;;;17.24;88.75
24013;BME280;12220;50.194;18.948;2023-08-06T09:07:53;100062.34;;;17.27;88.73
24013;BME280;12220;50.194;18.948;2023-08-06T09:09:56;100063.52;;;17.24;88.80
24013;BME280;12220;50.194;18.948;2023-08-06T09:12:02;100069.92;;;17.25;88.77
24013;BME280;12220;50.194;18.948;2023-08-06T09:14:07;100070.94;;;17.24;88.84
24013;BME280;12220;50.194;18.948;2023-08-06T09:16:09;100065.41;;;17.24;88.74
24013;BME280;12220;50.194;18.948;2023-08-06T09:18:11;100062.13;;;17.20;88.67
24013;BME280;12220;50.194;18.948;2023-08-06T09:20:14;99879.62;;;15.92;88.49
24013;BME280;12220;50.194;18.948;2023-08-06T09:22:15;100051.41;;;17.17;88.40
24013;BME280;12220;50.194;18.948;2023-08-06T09:24:22;100059.88;;;17.16;88.35
24013;BME280;12220;50.194;18.948;2023-08-06T09:26:24;100064.85;;;17.12;88.42
24013;BME280;12220;50.194;18.948;2023-08-06T09:30:40;100043.78;;;17.11;88.56
24013;BME280;12220;50.194;18.948;2023-08-06T09:32:48;100043.95;;;17.10;88.55
24013;BME280;12220;50.194;18.948;2023-08-06T09:34:58;100043.95;;;17.10;88.59
24013;BME280;12220;50.194;18.948;2023-08-06T09:37:01;99925.30;;;16.13;88.45
24013;BME280;12220;50.194;18.948;2023-08-06T09:39:16;100063.14;;;17.11;88.58
24013;BME280;12220;50.194;18.948;2023-08-06T09:43:26;100068.68;;;17.11;88.58
24013;BME280;12220;50.194;18.948;2023-08-06T09:45:36;100072.13;;;17.13;88.60
24013;BME280;12220;50.194;18.948;2023-08-06T09:47:44;100071.27;;;17.13;88.59
24013;BME280;12220;50.194;18.948;2023-08-06T09:49:45;100068.68;;;17.11;88.36
24013;BME280;12220;50.194;18.948;2023-08-06T09:51:47;100074.38;;;17.10;88.42
24013;BME280;12220;50.194;18.948;2023-08-06T09:53:52;100081.79;;;17.09;88.30
24013;BME280;12220;50.194;18.948;2023-08-06T09:55:55;100072.09;;;17.05;88.42
24013;BME280;12220;50.194;18.948;2023-08-06T09:57:58;100081.44;;;17.04;88.53
24013;BME280;12220;50.194;18.948;2023-08-06T10:00:00;100075.90;;;17.04;88.67
24013;BME280;12220;50.194;18.948;2023-08-06T10:02:11;100080.21;;;17.06;88.75
24013;BME280;12220;50.194;18.948;2023-08-06T10:04:14;100078.16;;;17.08;88.85
24013;BME280;12220;50.194;18.948;2023-08-06T10:06:20;100082.34;;;17.13;88.69
24013;BME280;12220;50.194;18.948;2023-08-06T10:08:23;100078.52;;;17.14;88.54
24013;BME280;12220;50.194;18.948;2023-08-06T10:10:25;100084.05;;;17.14;88.52
24013;BME280;12220;50.194;18.948;2023-08-06T10:12:30;100091.33;;;17.15;88.48
24013;BME280;12220;50.194;18.948;2023-08-06T10:14:35;100091.48;;;17.13;88.43
24013;BME280;12220;50.194;18.948;2023-08-06T10:16:39;100089.75;;;17.12;88.49
24013;BME280;12220;50.194;18.948;2023-08-06T10:18:41;100090.64;;;17.13;88.33
24013;BME280;12220;50.194;18.948;2023-08-06T10:20:44;100088.89;;;17.12;88.34
24013;BME280;12220;50.194;18.948;2023-08-06T10:22:45;100099.96;;;17.12;88.37
24013;BME280;12220;50.194;18.948;2023-08-06T10:24:50;100100.65;;;17.14;88.45
24013;BME280;12220;50.194;18.948;2023-08-06T10:26:58;100111.37;;;17.17;88.49
24013;BME280;12220;50.194;18.948;2023-08-06T10:29:00;100122.44;;;17.17;88.35
24013;BME280;12220;50.194;18.948;2023-08-06T10:31:01;100120.73;;;17.16;88.24
24013;BME280;12220;50.194;18.948;2023-08-06T10:33:05;100114.86;;;17.19;88.40
24013;BME280;12220;50.194;18.948;2023-08-06T10:35:27;100130.44;;;17.20;88.30
24013;BME280;12220;50.194;18.948;2023-08-06T10:37:36;100129.55;;;17.19;88.16
24013;BME280;12220;50.194;18.948;2023-08-06T10:41:51;100133.51;;;17.17;88.23
24013;BME280;12220;50.194;18.948;2023-08-06T10:44:07;100136.28;;;17.17;88.37
24013;BME280;12220;50.194;18.948;2023-08-06T10:46:10;100126.10;;;17.17;88.32
24013;BME280;12220;50.194;18.948;2023-08-06T10:50:39;100124.91;;;17.20;88.25
24013;BME280;12220;50.194;18.948;2023-08-06T10:52:41;100130.61;;;17.18;88.27
24013;BME280;12220;50.194;18.948;2023-08-06T10:54:42;100119.84;;;17.15;88.08
24013;BME280;12220;50.194;18.948;2023-08-06T10:56:44;100123.12;;;17.11;87.98